CheckWX is a tool to help pilots better visualize weather data.  It is not intended as a substitute for an official pre-flight weather briefing.

04:17:20 UTC

KBVU METAR
Boulder City Municipal Airport
Boulder City, Nevada, USA
Current

22 mins ago

KBVU 270355Z AUTO 17009G15KT 10SM CLR 31/M05 A2986 RMK AO2
Observed
Jun-27 @ 03:55 UTC
Wind
  • 170° at 9 KTS
  • Gusting to 15 KTS
Visibility
10 SM
Flight Rules
VFR
Cloud Levels
  • Clear skies
Temperature
31°C / 88°F
Dewpoint
-5°C / 23°F
Humidity
9%
Altimeter
29.86" Hg
Pressure
1011.22 hPa
Previous

42 mins ago

KBVU 270335Z AUTO 17012KT 10SM CLR 31/M04 A2985 RMK AO2
Observed
Jun-27 @ 03:35 UTC
Wind
  • 170° at 12 KTS
Visibility
10 SM
Flight Rules
VFR
Cloud Levels
  • Clear skies
Temperature
31°C / 88°F
Dewpoint
-4°C / 25°F
Humidity
10%
Altimeter
29.85" Hg
Pressure
1010.82 hPa
Previous

1 hour ago

KBVU 270315Z AUTO 17015KT 10SM CLR 32/M05 A2984 RMK AO2
Observed
Jun-27 @ 03:15 UTC
Wind
  • 170° at 15 KTS
Visibility
10 SM
Flight Rules
VFR
Cloud Levels
  • Clear skies
Temperature
32°C / 90°F
Dewpoint
-5°C / 23°F
Humidity
9%
Altimeter
29.84" Hg
Pressure
1010.52 hPa